Time;durP1;ratioP1;P1;durP2;ratioP2;P2;SDS_P1;SDS_P2;PMS_P1;PMS_P2;Temp;Humidity;BMP_temperature;BMP_pressure;BME280_temperature;BME280_humidity;BME280_pressure;Samples;Min_cycle;Max_cycle;Signal;HPM_P1;HPM_P2
2021/05/12 00:01:06;;;;;;;18.40;12.85;;;14.80;99.90;;;;;;4194156;28;20028;-71
2021/05/12 00:03:07;;;;;;;19.95;14.60;;;14.80;99.90;;;;;;4192398;28;20399;-71
2021/05/12 00:05:09;;;;;;;22.15;14.63;;;14.80;99.90;;;;;;4194250;28;20037;-71
2021/05/12 00:07:10;;;;;;;17.77;12.65;;;14.70;99.90;;;;;;4193720;28;20033;-71
2021/05/12 00:09:11;;;;;;;18.33;13.73;;;14.80;99.90;;;;;;4194577;28;20090;-71
2021/05/12 00:11:12;;;;;;;15.50;13.07;;;14.70;99.90;;;;;;4192335;28;20040;-72
2021/05/12 00:13:12;;;;;;;17.48;12.60;;;14.70;99.90;;;;;;4191180;28;20037;-71
2021/05/12 00:15:16;;;;;;;21.58;14.95;;;14.70;99.90;;;;;;4194368;28;20135;-71
2021/05/12 00:17:19;;;;;;;19.52;13.75;;;14.60;99.90;;;;;;4194304;28;20040;-71
2021/05/12 00:19:21;;;;;;;19.95;13.98;;;14.60;99.90;;;;;;4183021;28;20036;-71
2021/05/12 00:21:33;;;;;;;15.27;11.65;;;14.60;99.90;;;;;;4192589;28;20063;-72
2021/05/12 00:26:03;;;;;;;18.65;14.10;;;14.50;99.90;;;;;;4191686;28;20033;-71
2021/05/12 00:28:04;;;;;;;20.48;13.23;;;14.50;99.90;;;;;;4193327;28;20417;-71
2021/05/12 00:30:07;;;;;;;19.50;14.82;;;14.50;99.90;;;;;;4194146;28;20024;-71
2021/05/12 00:32:08;;;;;;;17.77;13.05;;;14.50;99.90;;;;;;4193209;28;20512;-71
2021/05/12 00:34:08;;;;;;;19.33;14.63;;;14.40;99.90;;;;;;4192048;28;20029;-71
2021/05/12 00:36:09;;;;;;;23.83;15.48;;;14.40;99.90;;;;;;4191875;28;20024;-71
2021/05/12 00:38:10;;;;;;;23.27;15.50;;;14.30;99.90;;;;;;4192250;28;20033;-71
2021/05/12 00:40:13;;;;;;;18.95;13.93;;;14.20;99.90;;;;;;4194009;28;20170;-71
2021/05/12 00:42:13;;;;;;;20.90;13.98;;;14.30;99.90;;;;;;4193631;28;20059;-71
2021/05/12 00:44:21;;;;;;;16.50;12.95;;;14.30;99.90;;;;;;4193710;28;20052;-71
2021/05/12 00:46:21;;;;;;;18.80;13.68;;;14.20;99.90;;;;;;4191800;28;20041;-71
2021/05/12 00:48:22;;;;;;;21.20;15.00;;;14.20;99.90;;;;;;4193265;28;20033;-72
2021/05/12 00:50:23;;;;;;;17.70;12.77;;;14.20;99.90;;;;;;4193722;28;20527;-71
2021/05/12 00:52:24;;;;;;;22.55;15.25;;;14.10;99.90;;;;;;4192037;28;20037;-71
2021/05/12 00:54:25;;;;;;;20.13;14.35;;;14.10;99.90;;;;;;4191552;28;20031;-71
2021/05/12 00:56:26;;;;;;;21.95;14.48;;;14.10;99.90;;;;;;4191771;28;20080;-71
2021/05/12 00:58:26;;;;;;;22.15;13.98;;;14.10;99.90;;;;;;4189291;28;20029;-71
2021/05/12 01:00:30;;;;;;;21.45;14.48;;;14.10;99.90;;;;;;4175676;28;20032;-71
2021/05/12 01:02:33;;;;;;;21.05;13.75;;;14.10;99.90;;;;;;4192124;28;20098;-72
2021/05/12 01:04:34;;;;;;;21.63;14.07;;;14.10;99.90;;;;;;4191621;28;20385;-71
2021/05/12 01:06:39;;;;;;;19.55;13.27;;;14.10;99.90;;;;;;4193129;28;20032;-72
2021/05/12 01:08:40;;;;;;;21.00;14.32;;;14.10;99.90;;;;;;4192832;28;20385;-71
2021/05/12 01:10:41;;;;;;;22.75;14.27;;;14.10;99.90;;;;;;4193636;28;20024;-71
2021/05/12 01:12:42;;;;;;;23.20;14.98;;;14.10;99.90;;;;;;4174949;28;20057;-71
2021/05/12 01:14:42;;;;;;;19.63;14.55;;;14.10;99.90;;;;;;4207945;28;20141;-71
2021/05/12 01:16:43;;;;;;;21.58;15.40;;;14.00;99.90;;;;;;4193240;28;20056;-71
2021/05/12 01:18:44;;;;;;;22.52;14.65;;;14.10;99.90;;;;;;4191209;28;20514;-71
2021/05/12 01:20:57;;;;;;;18.10;14.05;;;14.00;99.90;;;;;;4193321;28;20044;-71
2021/05/12 01:22:58;;;;;;;19.33;13.43;;;14.00;99.90;;;;;;4192933;28;20081;-71
2021/05/12 01:24:59;;;;;;;19.50;14.73;;;14.00;99.90;;;;;;4191753;28;20119;-71
2021/05/12 01:27:00;;;;;;;19.33;14.38;;;14.00;99.90;;;;;;4193265;28;20081;-71
2021/05/12 01:29:01;;;;;;;22.58;14.50;;;14.00;99.90;;;;;;4192533;28;20032;-71
2021/05/12 01:31:08;;;;;;;19.92;14.65;;;14.00;99.90;;;;;;4191340;28;20033;-72
2021/05/12 01:33:09;;;;;;;17.80;13.48;;;14.00;99.90;;;;;;4192719;28;20143;-71
2021/05/12 01:35:11;;;;;;;22.67;16.10;;;14.00;99.90;;;;;;4190592;28;20040;-72
2021/05/12 01:37:11;;;;;;;19.52;14.70;;;14.00;99.90;;;;;;4191426;28;20051;-71
2021/05/12 01:39:13;;;;;;;19.50;13.10;;;14.00;99.90;;;;;;4192881;28;20041;-71
2021/05/12 01:41:14;;;;;;;18.58;13.60;;;14.00;99.90;;;;;;4190698;28;20064;-72
2021/05/12 01:43:15;;;;;;;22.00;15.93;;;14.00;99.90;;;;;;4192993;28;20063;-71
2021/05/12 01:45:16;;;;;;;19.95;14.13;;;14.00;99.90;;;;;;4192715;28;20156;-71
2021/05/12 01:47:16;;;;;;;19.48;13.52;;;14.00;99.90;;;;;;4192542;28;20033;-71
2021/05/12 01:49:17;;;;;;;19.70;13.23;;;14.00;99.90;;;;;;4188704;28;20057;-71
2021/05/12 01:51:18;;;;;;;20.33;14.27;;;14.00;99.90;;;;;;4176334;28;20053;-72
2021/05/12 01:53:19;;;;;;;21.52;12.85;;;14.00;99.90;;;;;;4191130;28;20515;-72
2021/05/12 01:55:20;;;;;;;21.15;14.57;;;14.10;99.90;;;;;;4192245;28;20047;-71
2021/05/12 01:57:20;;;;;;;21.05;13.93;;;14.10;99.90;;;;;;4191320;28;20065;-72
2021/05/12 01:59:21;;;;;;;18.50;13.88;;;14.10;99.90;;;;;;4192239;28;20127;-72
2021/05/12 02:01:22;;;;;;;23.55;15.32;;;14.00;99.90;;;;;;4191058;28;20552;-71
2021/05/12 02:03:23;;;;;;;22.80;15.02;;;14.00;99.90;;;;;;4192477;28;20036;-71
2021/05/12 02:05:26;;;;;;;23.38;14.27;;;14.00;99.90;;;;;;4191747;28;20056;-71
2021/05/12 02:07:26;;;;;;;;;;;14.00;99.90;;;;;;4193083;28;20074;-71
2021/05/12 02:09:28;;;;;;;17.63;12.20;;;14.00;99.90;;;;;;4190411;28;20365;-72
2021/05/12 02:11:28;;;;;;;25.08;16.05;;;14.00;99.90;;;;;;4192042;28;20056;-72
2021/05/12 02:13:31;;;;;;;21.23;14.40;;;13.90;99.90;;;;;;4192744;28;20063;-72
2021/05/12 02:15:32;;;;;;;21.55;13.43;;;13.90;99.90;;;;;;4190494;28;20043;-72
2021/05/12 02:17:32;;;;;;;22.63;14.82;;;13.90;99.90;;;;;;4192028;28;20032;-72
2021/05/12 02:19:33;;;;;;;20.20;13.60;;;13.90;99.90;;;;;;4192157;28;20464;-71
2021/05/12 02:21:34;;;;;;;20.10;13.93;;;13.90;99.90;;;;;;4190668;28;20052;-71
2021/05/12 02:23:34;;;;;;;19.63;13.50;;;13.90;99.90;;;;;;4187650;28;20047;-71
2021/05/12 02:25:35;;;;;;;25.98;14.82;;;13.90;99.90;;;;;;4191671;28;20029;-71
2021/05/12 02:27:36;;;;;;;17.90;13.73;;;13.90;99.90;;;;;;4192157;28;20039;-71
2021/05/12 02:29:37;;;;;;;16.90;12.35;;;14.00;99.90;;;;;;4190505;28;20169;-71
2021/05/12 02:31:37;;;;;;;19.35;13.45;;;14.00;99.90;;;;;;4191658;28;20052;-72
2021/05/12 02:33:38;;;;;;;19.02;14.00;;;14.00;99.90;;;;;;4191749;28;20502;-72
2021/05/12 02:35:39;;;;;;;19.48;14.32;;;14.00;99.90;;;;;;4191830;28;20044;-72
2021/05/12 02:37:40;;;;;;;18.90;13.32;;;14.00;99.90;;;;;;4197531;28;20106;-72
2021/05/12 02:39:41;;;;;;;20.38;14.52;;;14.00;99.90;;;;;;4196488;28;20032;-72
2021/05/12 02:41:41;;;;;;;19.13;13.65;;;14.00;99.90;;;;;;4181035;28;20033;-71
2021/05/12 02:43:42;;;;;;;21.30;13.52;;;14.00;99.90;;;;;;4181424;28;20040;-72
2021/05/12 02:45:43;;;;;;;20.55;13.15;;;14.00;99.90;;;;;;4189397;28;20032;-72
2021/05/12 02:47:56;;;;;;;26.58;14.85;;;14.00;99.90;;;;;;4196376;28;20048;-72
2021/05/12 02:49:57;;;;;;;21.83;14.63;;;14.10;99.90;;;;;;4194865;28;20399;-71
2021/05/12 02:51:58;;;;;;;19.05;13.38;;;14.00;99.90;;;;;;4181321;28;20036;-71
2021/05/12 02:53:58;;;;;;;19.58;14.00;;;14.00;99.90;;;;;;4180520;28;20503;-72
2021/05/12 02:55:59;;;;;;;21.75;13.88;;;14.00;99.90;;;;;;4179269;28;20032;-71
2021/05/12 02:58:00;;;;;;;19.85;13.25;;;14.00;99.90;;;;;;4179487;28;20083;-71
2021/05/12 03:00:03;;;;;;;18.88;13.32;;;14.00;99.90;;;;;;4179543;28;20044;-71
2021/05/12 03:02:04;;;;;;;22.08;14.25;;;14.00;99.90;;;;;;4197231;28;20111;-72
2021/05/12 03:04:04;;;;;;;22.70;14.82;;;14.00;99.90;;;;;;4195768;28;20066;-72
2021/05/12 03:06:05;;;;;;;23.05;14.60;;;14.00;99.90;;;;;;4195364;28;20032;-71
2021/05/12 03:08:07;;;;;;;22.75;15.20;;;14.00;99.90;;;;;;4197625;28;20032;-72
2021/05/12 03:10:11;;;;;;;17.95;13.27;;;14.00;99.90;;;;;;4197203;28;20124;-72
2021/05/12 03:12:12;;;;;;;29.10;14.65;;;14.00;99.90;;;;;;4197366;28;20106;-72
2021/05/12 03:14:12;;;;;;;19.23;13.43;;;14.00;99.90;;;;;;4197625;28;20025;-71
2021/05/12 03:16:13;;;;;;;18.67;13.98;;;14.00;99.90;;;;;;4192654;28;20103;-72
2021/05/12 03:18:14;;;;;;;24.20;14.95;;;14.00;99.90;;;;;;4197833;28;20500;-72
2021/05/12 03:20:16;;;;;;;19.55;13.27;;;14.00;99.90;;;;;;4197670;28;20024;-72
2021/05/12 03:22:17;;;;;;;19.92;13.55;;;14.00;99.90;;;;;;4181028;28;20029;-71
2021/05/12 03:24:17;;;;;;;24.20;15.82;;;14.00;99.90;;;;;;4179545;28;20025;-71
2021/05/12 03:26:19;;;;;;;24.50;15.05;;;14.00;99.90;;;;;;4188555;28;20037;-71
2021/05/12 03:28:20;;;;;;;21.58;13.75;;;14.00;99.90;;;;;;4197555;28;20111;-72
2021/05/12 03:30:37;;;;;;;20.67;13.25;;;14.00;99.90;;;;;;4195739;28;20040;-72
2021/05/12 03:32:37;;;;;;;21.55;15.18;;;14.00;99.90;;;;;;4195378;28;20132;-71
2021/05/12 03:34:38;;;;;;;18.55;13.32;;;14.00;99.90;;;;;;4180362;28;20071;-72
2021/05/12 03:36:39;;;;;;;22.05;15.70;;;13.90;99.90;;;;;;4190520;28;20032;-72
2021/05/12 03:38:40;;;;;;;19.77;14.77;;;13.90;99.90;;;;;;4197800;28;20029;-72
2021/05/12 03:40:41;;;;;;;20.13;14.63;;;13.90;99.90;;;;;;4196699;28;20037;-72
2021/05/12 03:42:42;;;;;;;19.30;13.77;;;13.90;99.90;;;;;;4196789;28;20109;-72
2021/05/12 03:44:43;;;;;;;21.25;14.23;;;13.90;99.90;;;;;;4197308;28;20059;-72
2021/05/12 03:46:43;;;;;;;17.67;13.25;;;13.90;99.90;;;;;;4187942;28;20035;-72
2021/05/12 03:48:44;;;;;;;21.67;14.80;;;13.90;99.90;;;;;;4177719;28;20037;-72
2021/05/12 03:50:45;;;;;;;23.05;14.82;;;13.90;99.90;;;;;;4178290;28;20424;-72
2021/05/12 03:52:46;;;;;;;18.17;12.63;;;13.90;99.90;;;;;;4193844;28;20475;-72
2021/05/12 03:54:49;;;;;;;18.55;13.48;;;13.90;99.90;;;;;;4194267;28;20074;-72
2021/05/12 03:56:50;;;;;;;22.50;14.07;;;14.00;99.90;;;;;;4194336;28;20520;-71
2021/05/12 03:58:50;;;;;;;18.77;12.95;;;13.90;99.90;;;;;;4194283;28;20037;-72
2021/05/12 04:00:51;;;;;;;17.15;12.35;;;13.90;99.90;;;;;;4194688;28;20602;-72
2021/05/12 04:02:52;;;;;;;25.55;14.60;;;13.90;99.90;;;;;;4192470;28;20668;-72
2021/05/12 04:04:52;;;;;;;17.02;12.23;;;13.90;99.90;;;;;;4192504;28;20511;-72
2021/05/12 04:06:53;;;;;;;17.88;12.40;;;13.90;99.90;;;;;;4194247;28;20079;-71
2021/05/12 04:08:53;;;;;;;19.55;12.45;;;13.90;99.90;;;;;;4194304;28;20029;-72
2021/05/12 04:10:54;;;;;;;21.08;12.73;;;13.90;99.90;;;;;;4193520;28;20086;-72
2021/05/12 04:12:55;;;;;;;22.80;13.15;;;13.90;99.90;;;;;;4194047;28;20039;-72
2021/05/12 04:14:55;;;;;;;18.65;12.77;;;13.80;99.90;;;;;;4192297;28;20040;-72
2021/05/12 04:16:56;;;;;;;18.25;11.00;;;13.80;99.90;;;;;;4188926;28;20037;-72
2021/05/12 04:18:57;;;;;;;14.40;10.75;;;13.80;99.90;;;;;;4183085;28;20071;-72
2021/05/12 04:20:57;;;;;;;21.83;11.55;;;13.70;99.90;;;;;;4195690;28;20036;-72
2021/05/12 04:22:58;;;;;;;19.30;12.00;;;13.70;99.90;;;;;;4193744;28;20031;-72
2021/05/12 04:24:59;;;;;;;17.58;11.80;;;13.70;99.90;;;;;;4199560;28;20705;-72
2021/05/12 04:26:59;;;;;;;15.75;11.10;;;13.70;99.90;;;;;;4192873;28;20638;-72
2021/05/12 04:29:00;;;;;;;18.90;12.15;;;13.70;99.90;;;;;;4191684;28;20040;-72
2021/05/12 04:31:00;;;;;;;12.50;9.10;;;13.70;99.90;;;;;;4192317;28;20032;-72
2021/05/12 04:33:01;;;;;;;14.43;10.38;;;13.70;99.90;;;;;;4193943;28;20056;-72
2021/05/12 04:35:03;;;;;;;17.67;10.55;;;13.70;99.90;;;;;;4193618;28;20105;-72
2021/05/12 04:37:03;;;;;;;16.27;10.40;;;13.70;99.90;;;;;;4193977;28;20032;-71
2021/05/12 04:39:04;;;;;;;19.30;10.13;;;13.70;99.90;;;;;;4194126;28;20040;-71
2021/05/12 04:41:05;;;;;;;14.65;9.68;;;13.70;99.90;;;;;;4191552;28;20063;-72
2021/05/12 04:43:06;;;;;;;17.85;9.50;;;13.70;99.90;;;;;;4193642;28;20037;-72
2021/05/12 04:45:09;;;;;;;17.08;10.35;;;13.70;99.90;;;;;;4193798;28;20048;-72
2021/05/12 04:47:12;;;;;;;14.57;8.98;;;13.70;99.90;;;;;;4193245;28;20032;-72
2021/05/12 04:49:12;;;;;;;16.63;9.82;;;13.70;99.90;;;;;;4175031;28;20405;-72
2021/05/12 04:51:13;;;;;;;16.38;10.55;;;13.70;99.90;;;;;;4193424;28;20097;-72
2021/05/12 04:53:13;;;;;;;14.80;9.70;;;13.70;99.90;;;;;;4191609;28;20545;-72
2021/05/12 04:55:14;;;;;;;17.77;10.43;;;13.70;99.90;;;;;;4191725;28;20809;-72
2021/05/12 04:57:15;;;;;;;14.82;9.75;;;13.80;99.90;;;;;;4191839;28;20040;-73
2021/05/12 04:59:16;;;;;;;16.45;9.85;;;13.70;99.90;;;;;;4193030;28;20094;-72
2021/05/12 05:01:16;;;;;;;13.50;8.90;;;13.70;99.90;;;;;;4175214;28;20128;-72
2021/05/12 05:03:17;;;;;;;14.23;9.40;;;13.70;99.90;;;;;;4193518;28;20437;-72
2021/05/12 05:05:18;;;;;;;17.83;10.05;;;13.70;99.90;;;;;;4191905;28;20393;-72
2021/05/12 05:07:18;;;;;;;15.55;9.60;;;13.70;99.90;;;;;;4193297;28;20041;-72
2021/05/12 05:09:19;;;;;;;14.80;9.05;;;13.70;99.90;;;;;;4193345;28;20043;-72
2021/05/12 05:11:19;;;;;;;14.75;10.57;;;13.70;99.90;;;;;;4171928;28;20033;-71
2021/05/12 05:13:20;;;;;;;16.27;9.88;;;13.70;99.90;;;;;;4189366;28;20036;-72
2021/05/12 05:15:21;;;;;;;14.45;9.43;;;13.70;99.90;;;;;;4191830;28;20091;-72
2021/05/12 05:17:24;;;;;;;14.90;9.80;;;13.60;99.90;;;;;;4191998;28;20047;-72
2021/05/12 05:19:26;;;;;;;16.27;9.20;;;13.60;99.90;;;;;;4192138;28;20040;-72
2021/05/12 05:21:26;;;;;;;13.45;9.43;;;13.60;99.90;;;;;;4192059;28;20114;-72
2021/05/12 05:23:27;;;;;;;16.40;9.20;;;13.70;99.90;;;;;;4177038;28;20044;-72
2021/05/12 05:25:28;;;;;;;14.77;9.65;;;13.70;99.90;;;;;;4192781;28;20135;-72
2021/05/12 05:27:28;;;;;;;14.57;9.52;;;13.70;99.90;;;;;;4195872;28;20444;-71
2021/05/12 05:29:29;;;;;;;18.13;10.88;;;13.70;99.90;;;;;;4191227;28;20032;-72
2021/05/12 05:31:30;;;;;;;16.40;10.45;;;13.70;99.90;;;;;;4191642;28;20033;-71
2021/05/12 05:33:30;;;;;;;13.35;8.85;;;13.70;99.90;;;;;;4193913;28;20761;-72
2021/05/12 05:35:31;;;;;;;12.55;8.63;;;13.70;99.90;;;;;;4168796;28;20688;-72
2021/05/12 05:37:33;;;;;;;14.75;9.50;;;13.80;99.90;;;;;;4187259;28;20104;-72
2021/05/12 05:39:36;;;;;;;14.45;9.00;;;13.80;99.90;;;;;;4190800;28;20040;-72
2021/05/12 05:41:37;;;;;;;12.75;8.90;;;13.80;99.90;;;;;;4192337;28;20401;-72
2021/05/12 05:43:38;;;;;;;16.65;9.93;;;13.90;99.90;;;;;;4192865;28;20031;-72
2021/05/12 05:45:42;;;;;;;15.25;8.98;;;13.90;99.90;;;;;;4192349;28;20028;-72
2021/05/12 05:47:43;;;;;;;16.77;9.50;;;13.90;99.90;;;;;;4193389;28;20043;-72
2021/05/12 05:49:45;;;;;;;15.60;10.02;;;13.90;99.90;;;;;;4193568;28;20607;-72
2021/05/12 05:51:46;;;;;;;12.52;8.48;;;13.90;99.90;;;;;;4187902;28;20557;-72
2021/05/12 05:53:46;;;;;;;13.48;8.88;;;13.90;99.90;;;;;;4194127;28;20040;-72
2021/05/12 05:55:47;;;;;;;15.52;9.45;;;14.00;99.90;;;;;;4193221;28;20066;-72
2021/05/12 05:57:49;;;;;;;15.07;9.38;;;14.00;99.90;;;;;;4190020;28;20042;-72
2021/05/12 05:59:50;;;;;;;15.77;9.30;;;14.00;99.90;;;;;;4193689;28;20032;-72
2021/05/12 06:01:51;;;;;;;12.57;8.20;;;14.00;99.90;;;;;;4192690;28;20040;-72
2021/05/12 06:03:52;;;;;;;15.43;8.73;;;14.10;99.90;;;;;;4189023;28;20039;-73
2021/05/12 06:05:53;;;;;;;14.45;8.40;;;14.10;99.90;;;;;;4192587;28;20123;-72
2021/05/12 06:07:53;;;;;;;14.23;8.60;;;14.10;99.90;;;;;;4195729;28;20111;-73
2021/05/12 06:09:54;;;;;;;12.25;8.80;;;14.10;99.90;;;;;;4191532;28;20036;-73
2021/05/12 06:11:56;;;;;;;12.82;8.23;;;14.20;99.90;;;;;;4192999;28;20027;-73
2021/05/12 06:13:57;;;;;;;14.20;8.40;;;14.20;99.90;;;;;;4193465;28;20040;-73
2021/05/12 06:15:59;;;;;;;14.25;8.00;;;14.30;99.90;;;;;;4196395;28;20025;-73
2021/05/12 06:17:59;;;;;;;15.98;8.80;;;14.30;99.90;;;;;;4188124;28;20032;-73
2021/05/12 06:20:00;;;;;;;9.18;7.18;;;14.30;99.90;;;;;;4191482;28;20054;-73
2021/05/12 06:22:02;;;;;;;12.90;8.68;;;14.40;99.90;;;;;;4189642;28;20044;-73
2021/05/12 06:24:03;;;;;;;14.10;8.23;;;14.50;99.90;;;;;;4188430;28;20060;-73
2021/05/12 06:26:12;;;;;;;14.55;9.32;;;14.70;99.90;;;;;;4192809;28;20040;-73
2021/05/12 06:28:13;;;;;;;14.00;9.20;;;14.80;99.90;;;;;;4189866;28;20585;-73
2021/05/12 06:30:14;;;;;;;12.20;8.52;;;14.90;99.90;;;;;;4189593;28;20052;-73
2021/05/12 06:32:15;;;;;;;16.63;9.30;;;15.00;99.90;;;;;;4188757;28;20037;-73
2021/05/12 06:34:16;;;;;;;14.80;8.43;;;15.00;99.90;;;;;;4187588;28;20041;-72
2021/05/12 06:36:16;;;;;;;14.55;8.45;;;15.00;99.90;;;;;;4188166;28;20457;-73
2021/05/12 06:38:17;;;;;;;13.43;9.50;;;15.00;99.90;;;;;;4186194;28;20033;-72
2021/05/12 06:40:18;;;;;;;16.42;9.60;;;15.00;99.90;;;;;;4189378;28;20435;-73
2021/05/12 06:42:18;;;;;;;14.38;8.77;;;15.00;99.90;;;;;;4188020;28;20047;-73
2021/05/12 06:44:20;;;;;;;14.55;8.60;;;15.00;99.90;;;;;;4184610;28;20033;-73
2021/05/12 06:46:21;;;;;;;15.02;9.02;;;14.90;99.90;;;;;;4192346;28;20045;-73
2021/05/12 06:48:21;;;;;;;18.48;10.25;;;14.90;99.90;;;;;;4190637;28;20103;-73
2021/05/12 06:50:23;;;;;;;13.45;8.82;;;14.90;99.90;;;;;;4187695;28;20075;-72
2021/05/12 06:52:24;;;;;;;16.02;10.07;;;14.90;99.90;;;;;;4186243;28;20452;-73
2021/05/12 06:54:25;;;;;;;12.63;8.38;;;14.90;99.90;;;;;;4182913;28;20033;-73
2021/05/12 06:56:25;;;;;;;13.43;8.95;;;14.90;99.90;;;;;;4187901;28;20032;-74
2021/05/12 06:58:26;;;;;;;14.27;9.15;;;15.00;99.90;;;;;;4189930;28;20037;-72
2021/05/12 07:00:27;;;;;;;14.13;9.45;;;15.00;99.90;;;;;;4190261;28;20587;-73
2021/05/12 07:02:27;;;;;;;13.68;8.50;;;15.00;99.90;;;;;;4186026;28;20024;-73
2021/05/12 07:04:28;;;;;;;15.32;9.15;;;15.00;99.90;;;;;;4190822;28;20091;-73
2021/05/12 07:06:29;;;;;;;18.33;10.57;;;15.00;99.90;;;;;;4190650;28;20028;-72
2021/05/12 07:08:31;;;;;;;14.10;8.98;;;15.10;99.90;;;;;;4189326;28;20037;-73
2021/05/12 07:10:32;;;;;;;16.10;10.20;;;15.10;99.90;;;;;;4186778;28;20076;-73
2021/05/12 07:12:32;;;;;;;14.95;9.07;;;15.20;99.90;;;;;;4185980;28;20016;-73
2021/05/12 07:14:33;;;;;;;17.27;11.52;;;15.20;99.90;;;;;;4185441;28;20028;-73
2021/05/12 07:16:34;;;;;;;16.90;11.25;;;15.20;99.90;;;;;;4180570;28;20040;-71
2021/05/12 07:18:35;;;;;;;17.98;12.30;;;15.30;99.90;;;;;;4180498;28;20041;-71
2021/05/12 07:20:35;;;;;;;16.67;11.00;;;15.20;99.90;;;;;;4182102;28;20427;-71
2021/05/12 07:22:36;;;;;;;15.50;10.15;;;15.30;99.90;;;;;;4200290;28;20028;-71
2021/05/12 07:24:36;;;;;;;16.98;11.15;;;15.30;99.90;;;;;;4184541;28;20128;-71
2021/05/12 07:26:37;;;;;;;17.67;11.27;;;15.30;99.90;;;;;;4182443;28;20029;-71
2021/05/12 07:28:38;;;;;;;21.95;13.43;;;15.30;99.90;;;;;;4183647;28;20032;-71
2021/05/12 07:30:39;;;;;;;19.95;13.07;;;15.30;99.90;;;;;;4184346;28;20101;-71
2021/05/12 07:32:39;;;;;;;15.55;11.65;;;15.30;99.90;;;;;;4181745;28;20475;-71
2021/05/12 07:34:41;;;;;;;19.50;12.40;;;15.40;99.90;;;;;;4186765;28;20503;-72
2021/05/12 07:36:41;;;;;;;18.80;11.63;;;15.50;99.90;;;;;;4185121;28;20033;-72
2021/05/12 07:38:42;;;;;;;14.80;10.80;;;15.50;99.90;;;;;;4182427;28;20044;-73
2021/05/12 07:40:43;;;;;;;12.40;9.80;;;15.50;99.90;;;;;;4182754;28;20040;-73
2021/05/12 07:42:45;;;;;;;16.60;11.35;;;15.60;99.90;;;;;;4185964;28;20121;-72
2021/05/12 07:44:48;;;;;;;19.77;12.93;;;15.60;99.90;;;;;;4184536;28;20033;-73
2021/05/12 07:46:50;;;;;;;16.73;12.20;;;15.70;99.90;;;;;;4184642;28;20045;-73
2021/05/12 07:48:51;;;;;;;17.40;11.77;;;15.70;99.90;;;;;;4182790;28;20164;-72
2021/05/12 07:50:51;;;;;;;13.35;10.65;;;15.70;99.90;;;;;;4180295;28;20204;-73
2021/05/12 07:52:52;;;;;;;14.10;9.77;;;15.70;99.90;;;;;;4188316;28;20124;-72
2021/05/12 07:54:53;;;;;;;14.77;11.38;;;15.70;99.90;;;;;;4182844;28;20033;-72
2021/05/12 07:56:54;;;;;;;16.42;11.05;;;15.70;99.90;;;;;;4186107;28;20124;-73
2021/05/12 07:58:55;;;;;;;15.25;11.35;;;15.80;99.90;;;;;;4180593;28;20052;-73
2021/05/12 08:01:02;;;;;;;17.88;12.30;;;15.80;99.90;;;;;;4182859;28;20048;-73
2021/05/12 08:03:03;;;;;;;14.55;11.02;;;15.80;99.90;;;;;;4180357;28;20094;-73
2021/05/12 08:05:04;;;;;;;14.00;9.95;;;15.80;99.90;;;;;;4183248;28;20028;-73
2021/05/12 08:07:04;;;;;;;19.17;14.13;;;15.80;99.90;;;;;;4183357;28;20033;-72
2021/05/12 08:09:09;;;;;;;22.38;15.73;;;15.90;99.90;;;;;;4167662;28;20106;-73
2021/05/12 08:11:10;;;;;;;19.38;14.18;;;15.90;99.90;;;;;;4185340;28;20149;-73
2021/05/12 08:13:10;;;;;;;19.30;14.90;;;16.00;99.90;;;;;;4184640;28;20122;-72
2021/05/12 08:15:11;;;;;;;19.02;14.93;;;16.00;99.90;;;;;;4181908;28;20048;-73
2021/05/12 08:17:12;;;;;;;16.45;12.88;;;15.90;99.90;;;;;;4181747;28;20036;-73
2021/05/12 08:19:13;;;;;;;14.82;12.45;;;15.90;99.90;;;;;;4183979;28;20045;-73
2021/05/12 08:21:14;;;;;;;21.27;13.48;;;15.90;99.90;;;;;;4182401;28;20136;-73
2021/05/12 08:23:15;;;;;;;15.80;12.85;;;16.00;99.90;;;;;;4182704;28;20567;-73
2021/05/12 08:25:17;;;;;;;15.52;11.77;;;16.00;99.90;;;;;;4183231;28;20119;-73
2021/05/12 08:27:18;;;;;;;17.33;12.40;;;16.10;99.90;;;;;;4186054;28;20056;-73
2021/05/12 08:29:18;;;;;;;19.67;13.40;;;16.20;99.90;;;;;;4190851;28;20766;-73
2021/05/12 08:31:19;;;;;;;15.30;10.55;;;16.30;99.90;;;;;;4188595;28;20097;-74
2021/05/12 08:33:20;;;;;;;18.73;11.02;;;16.30;99.90;;;;;;4188643;28;20464;-73
2021/05/12 08:35:21;;;;;;;11.90;8.77;;;16.40;99.90;;;;;;4187984;28;20025;-72
2021/05/12 08:37:21;;;;;;;13.10;8.88;;;16.40;99.90;;;;;;4191405;28;20115;-73
2021/05/12 08:39:22;;;;;;;12.25;8.25;;;16.50;99.90;;;;;;4186940;28;20033;-73
2021/05/12 08:41:22;;;;;;;10.93;8.25;;;16.50;99.90;;;;;;4189147;28;20048;-73
2021/05/12 08:43:25;;;;;;;14.63;8.68;;;16.50;99.90;;;;;;4191633;28;20391;-73
2021/05/12 08:45:26;;;;;;;9.82;7.68;;;16.60;99.90;;;;;;4184851;28;20401;-73
2021/05/12 08:47:28;;;;;;;10.40;7.40;;;16.70;99.90;;;;;;4187761;28;20713;-73
2021/05/12 08:49:33;;;;;;;15.23;8.90;;;16.70;99.90;;;;;;4181713;28;20060;-73
2021/05/12 08:51:33;;;;;;;9.43;7.25;;;16.70;99.90;;;;;;4186572;28;20044;-73
2021/05/12 08:53:35;;;;;;;12.77;9.20;;;16.80;99.90;;;;;;4190201;28;20089;-73
2021/05/12 08:55:36;;;;;;;11.25;7.63;;;16.90;99.90;;;;;;4190226;28;20064;-73
2021/05/12 08:57:37;;;;;;;12.25;8.68;;;16.90;99.90;;;;;;4189955;28;20033;-73
2021/05/12 08:59:38;;;;;;;13.85;8.75;;;17.10;99.90;;;;;;4187528;28;20039;-72
2021/05/12 09:01:40;;;;;;;9.25;6.40;;;17.20;99.90;;;;;;4190087;28;20066;-73
2021/05/12 09:03:43;;;;;;;11.60;7.25;;;17.30;99.90;;;;;;4187218;28;20185;-73
2021/05/12 09:05:44;;;;;;;10.38;6.78;;;17.40;99.90;;;;;;4206956;28;20495;-73
2021/05/12 09:07:46;;;;;;;9.95;6.45;;;17.50;99.90;;;;;;4189844;28;20041;-73
2021/05/12 09:10:08;;;;;;;11.55;6.85;;;17.50;99.90;;;;;;4185489;28;20056;-73
2021/05/12 09:12:55;;;;;;;11.48;6.45;;;17.50;99.90;;;;;;4184634;28;20095;-73
2021/05/12 09:14:56;;;;;;;11.60;6.97;;;17.60;99.90;;;;;;4182866;28;20037;-73
2021/05/12 09:16:57;;;;;;;12.95;7.35;;;17.60;99.90;;;;;;4191655;28;20044;-74
2021/05/12 09:19:06;;;;;;;13.30;8.95;;;17.70;99.90;;;;;;4186130;28;20040;-73
2021/05/12 09:21:07;;;;;;;10.85;7.40;;;17.70;99.90;;;;;;4185054;28;20431;-73
2021/05/12 09:23:10;;;;;;;11.60;7.63;;;17.70;99.90;;;;;;4193817;28;20043;-73
2021/05/12 09:25:19;;;;;;;12.27;7.13;;;17.70;99.90;;;;;;4189633;28;20808;-73
2021/05/12 09:27:23;;;;;;;11.00;6.88;;;17.70;99.90;;;;;;4202112;28;20063;-73
2021/05/12 09:29:37;;;;;;;12.73;6.72;;;17.60;99.90;;;;;;4184411;28;20033;-73
2021/05/12 09:31:38;;;;;;;10.73;7.10;;;17.60;99.90;;;;;;4185500;28;20459;-74
2021/05/12 09:33:41;;;;;;;10.63;6.03;;;17.60;99.90;;;;;;4188105;28;20064;-73
2021/05/12 09:35:42;;;;;;;10.43;6.22;;;17.60;99.90;;;;;;4188630;28;20036;-73
2021/05/12 09:37:45;;;;;;;12.30;6.13;;;17.70;99.90;;;;;;4186454;28;20454;-73
2021/05/12 09:39:49;;;;;;;;;;;17.80;99.90;;;;;;4171198;28;20048;-73
2021/05/12 09:41:50;;;;;;;10.32;6.40;;;17.80;99.90;;;;;;4185185;28;19908;-73
2021/05/12 09:43:54;;;;;;;9.18;5.22;;;17.80;99.90;;;;;;4186400;28;20578;-73
2021/05/12 09:46:31;;;;;;;14.15;5.63;;;17.80;99.90;;;;;;4186676;28;20112;-73
2021/05/12 09:48:31;;;;;;;11.63;5.88;;;17.80;99.90;;;;;;4186569;28;20037;-73
2021/05/12 09:50:40;;;;;;;8.10;4.93;;;17.70;99.90;;;;;;4187545;28;20043;-73
2021/05/12 09:52:41;;;;;;;7.72;4.93;;;17.80;99.90;;;;;;4189071;28;20572;-73
2021/05/12 09:54:42;;;;;;;6.90;4.45;;;17.80;99.90;;;;;;4190303;28;20051;-73
2021/05/12 09:56:45;;;;;;;11.95;5.40;;;17.80;99.90;;;;;;4186067;28;20458;-73
2021/05/12 09:58:54;;;;;;;7.13;4.30;;;17.80;99.90;;;;;;4189535;28;20059;-73
2021/05/12 10:00:55;;;;;;;8.57;4.72;;;17.90;99.90;;;;;;4191927;28;20029;-73
2021/05/12 10:02:57;;;;;;;6.55;4.03;;;17.90;99.90;;;;;;4189609;28;20028;-73
2021/05/12 10:05:00;;;;;;;7.38;4.65;;;18.00;99.90;;;;;;4185083;28;20505;-73
2021/05/12 10:07:23;;;;;;;9.40;4.80;;;18.10;99.90;;;;;;4187737;28;20060;-73
2021/05/12 10:09:25;;;;;;;6.53;3.60;;;18.10;99.90;;;;;;4186940;28;20480;-73
2021/05/12 10:11:26;;;;;;;7.90;3.70;;;18.30;99.90;;;;;;4189588;28;20082;-73
2021/05/12 10:13:27;;;;;;;5.93;3.53;;;18.30;99.90;;;;;;4186297;28;20431;-73
2021/05/12 10:15:28;;;;;;;6.20;3.15;;;18.40;99.90;;;;;;4193867;28;20028;-73
2021/05/12 10:17:30;;;;;;;6.40;3.70;;;18.50;99.90;;;;;;4187505;28;20720;-73
2021/05/12 10:19:33;;;;;;;7.65;3.22;;;18.50;99.90;;;;;;4194070;28;20641;-73
2021/05/12 10:21:33;;;;;;;4.97;2.45;;;18.60;99.90;;;;;;4188952;28;20033;-73
2021/05/12 10:23:36;;;;;;;8.48;4.00;;;18.60;99.90;;;;;;4186089;28;20504;-73
2021/05/12 10:25:37;;;;;;;;;;;18.70;99.90;;;;;;4181812;28;20052;-73